Time;durP1;ratioP1;P1;durP2;ratioP2;P2;SDS_P1;SDS_P2;PMS_P1;PMS_P2;Temp;Humidity;BMP_temperature;BMP_pressure;BME280_temperature;BME280_humidity;BME280_pressure;Samples;Min_cycle;Max_cycle;Signal;HPM_P1;HPM_P2
2021/11/13 00:02:06;;;;;;;45.83;19.67;;;;;;;8.36;100.00;100435.09;5037375;28;20068;-67
2021/11/13 00:04:34;;;;;;;43.72;20.75;;;;;;;8.28;100.00;100451.84;5037566;28;20071;-67
2021/11/13 00:07:04;;;;;;;50.58;20.92;;;;;;;8.33;100.00;100448.72;5042645;28;20040;-67
2021/11/13 00:09:32;;;;;;;43.95;21.95;;;;;;;8.35;100.00;100452.88;5041110;28;20440;-67
2021/11/13 00:12:00;;;;;;;40.50;21.98;;;;;;;8.47;100.00;100450.00;5037663;28;20045;-67
2021/11/13 00:14:29;;;;;;;45.10;21.25;;;;;;;8.42;100.00;100455.72;5042807;28;20433;-67
2021/11/13 00:16:58;;;;;;;44.65;20.52;;;;;;;8.48;100.00;100456.97;5039864;28;20055;-67
2021/11/13 00:19:26;;;;;;;44.50;20.58;;;;;;;8.52;100.00;100448.53;5041973;28;20052;-67
2021/11/13 00:21:54;;;;;;;46.42;20.40;;;;;;;8.51;100.00;100452.16;5040023;28;20053;-73
2021/11/13 00:24:25;;;;;;;45.88;21.33;;;;;;;8.47;100.00;100445.50;5041882;28;20067;-72
2021/11/13 00:26:53;;;;;;;48.80;21.55;;;;;;;8.46;100.00;100441.16;5041130;28;20219;-72
2021/11/13 00:29:21;;;;;;;41.85;19.35;;;;;;;8.45;100.00;100442.16;5034465;28;20041;-71
2021/11/13 00:31:51;;;;;;;44.85;20.10;;;;;;;8.56;100.00;100433.06;5037675;28;20042;-71
2021/11/13 00:34:19;;;;;;;36.25;18.55;;;;;;;8.68;100.00;100444.28;5035255;28;20166;-71
2021/11/13 00:36:47;;;;;;;38.40;17.73;;;;;;;8.84;100.00;100441.66;5040930;28;20260;-70
2021/11/13 00:39:16;;;;;;;43.67;19.60;;;;;;;8.92;100.00;100439.03;5040891;28;20064;-70
2021/11/13 00:41:46;;;;;;;36.80;17.80;;;;;;;9.11;100.00;100427.28;5039715;28;20044;-70
2021/11/13 00:44:14;;;;;;;37.80;19.02;;;;;;;9.18;100.00;100427.44;5039488;28;20045;-71
2021/11/13 00:46:42;;;;;;;39.40;18.23;;;;;;;9.25;100.00;100428.44;5035403;28;20658;-70
2021/11/13 00:49:11;;;;;;;33.20;17.55;;;;;;;9.41;100.00;100408.16;5038003;28;20437;-70
2021/11/13 00:51:39;;;;;;;37.30;17.58;;;;;;;9.47;100.00;100415.50;5040499;28;20055;-70
2021/11/13 00:54:08;;;;;;;41.83;18.27;;;;;;;9.43;100.00;100406.16;5036499;28;20045;-72
2021/11/13 00:56:36;;;;;;;40.80;18.98;;;;;;;9.45;100.00;100401.50;5039944;28;20469;-72
2021/11/13 00:59:06;;;;;;;44.65;18.77;;;;;;;9.54;100.00;100413.84;5037503;28;20116;-72
2021/11/13 01:01:34;;;;;;;41.13;18.63;;;;;;;9.53;100.00;100396.16;5032685;28;20033;-71
2021/11/13 01:04:03;;;;;;;37.03;18.55;;;;;;;9.54;100.00;100405.84;5040665;28;20056;-71
2021/11/13 01:06:31;;;;;;;43.22;18.92;;;;;;;9.54;100.00;100400.50;5037426;28;20121;-70
2021/11/13 01:08:59;;;;;;;40.08;17.65;;;;;;;9.57;100.00;100397.50;5036549;28;20044;-69
2021/11/13 01:11:28;;;;;;;38.65;18.48;;;;;;;9.58;100.00;100393.84;5036911;28;20436;-70
2021/11/13 01:13:56;;;;;;;37.17;16.52;;;;;;;9.55;100.00;100388.81;5035999;28;20139;-70
2021/11/13 01:16:26;;;;;;;36.33;17.13;;;;;;;9.58;100.00;100390.34;5042161;28;20046;-70
2021/11/13 01:18:56;;;;;;;38.25;19.25;;;;;;;9.49;100.00;100394.84;5038445;28;20048;-70
2021/11/13 01:21:24;;;;;;;41.05;19.60;;;;;;;9.51;100.00;100402.66;5040016;28;20075;-70
2021/11/13 01:23:52;;;;;;;40.25;18.52;;;;;;;9.60;100.00;100399.00;5038062;28;20119;-70
2021/11/13 01:26:21;;;;;;;41.95;18.63;;;;;;;9.47;100.00;100394.19;5038897;28;20042;-71
2021/11/13 01:28:49;;;;;;;35.70;17.38;;;;;;;9.50;100.00;100388.50;5038755;28;20072;-71
2021/11/13 01:31:17;;;;;;;35.40;18.90;;;;;;;9.59;100.00;100382.16;5035958;28;20041;-72
2021/11/13 01:33:47;;;;;;;40.28;17.20;;;;;;;9.51;100.00;100386.66;5035305;28;20044;-73
2021/11/13 01:36:15;;;;;;;42.22;17.88;;;;;;;9.50;100.00;100382.34;5038976;28;20064;-72
2021/11/13 01:38:43;;;;;;;40.90;18.27;;;;;;;9.54;100.00;100383.66;5039367;28;20364;-73
2021/11/13 01:41:11;;;;;;;36.60;18.92;;;;;;;9.50;100.00;100369.00;5038864;28;20376;-73
2021/11/13 01:43:42;;;;;;;45.78;19.65;;;;;;;9.49;100.00;100381.50;5032926;28;20045;-72
2021/11/13 01:46:11;;;;;;;39.00;18.58;;;;;;;9.59;100.00;100376.84;5038863;28;20045;-73
2021/11/13 01:48:39;;;;;;;44.15;18.70;;;;;;;9.48;100.00;100378.03;5038820;28;20056;-72
2021/11/13 01:51:20;;;;;;;39.88;17.40;;;;;;;9.57;100.00;100373.50;5039945;28;20156;-72
2021/11/13 01:53:50;;;;;;;30.95;15.65;;;;;;;9.62;100.00;100379.16;5036444;28;20037;-72
2021/11/13 01:56:19;;;;;;;39.10;17.13;;;;;;;9.63;100.00;100372.84;5038272;28;20045;-72
2021/11/13 01:58:49;;;;;;;43.40;18.90;;;;;;;9.62;100.00;100375.66;5036501;28;20042;-72
2021/11/13 02:01:17;;;;;;;36.53;15.35;;;;;;;9.63;100.00;100372.00;5038236;28;20048;-72
2021/11/13 02:03:46;;;;;;;36.33;14.50;;;;;;;9.68;100.00;100363.50;5033206;28;20384;-71
2021/11/13 02:06:14;;;;;;;31.02;14.35;;;;;;;9.67;100.00;100362.69;5036961;28;20064;-72
2021/11/13 02:08:44;;;;;;;31.02;14.90;;;;;;;9.71;100.00;100363.16;5038177;28;20383;-73
2021/11/13 02:11:14;;;;;;;32.88;15.38;;;;;;;9.76;100.00;100371.50;5037495;28;20306;-73
2021/11/13 02:13:43;;;;;;;32.45;13.48;;;;;;;9.79;100.00;100365.81;5038264;28;20506;-71
2021/11/13 02:16:11;;;;;;;31.33;13.93;;;;;;;9.81;100.00;100370.00;5038371;28;20049;-72
2021/11/13 02:18:40;;;;;;;32.47;13.93;;;;;;;9.79;100.00;100368.50;5036047;28;20045;-71
2021/11/13 02:21:11;;;;;;;27.92;13.15;;;;;;;9.80;100.00;100362.97;5043785;28;20041;-71
2021/11/13 02:23:42;;;;;;;27.45;14.20;;;;;;;9.74;100.00;100363.66;5038261;28;20445;-71
2021/11/13 02:26:11;;;;;;;26.45;13.13;;;;;;;9.74;100.00;100362.81;5042631;28;20060;-77
2021/11/13 02:28:40;;;;;;;26.33;12.40;;;;;;;9.81;100.00;100374.50;5040189;28;20053;-77
2021/11/13 02:31:10;;;;;;;31.25;14.10;;;;;;;9.77;100.00;100381.19;5035225;28;20048;-78
2021/11/13 02:33:39;;;;;;;29.17;11.77;;;;;;;9.80;100.00;100378.97;5035627;28;20341;-76
2021/11/13 02:36:08;;;;;;;27.13;12.07;;;;;;;9.79;100.00;100377.31;5037704;28;20041;-77
2021/11/13 02:38:39;;;;;;;21.38;9.27;;;;;;;9.78;100.00;100377.47;5038709;28;20049;-74
2021/11/13 02:41:10;;;;;;;12.13;5.53;;;;;;;9.82;100.00;100376.16;5044688;28;20053;-74
2021/11/13 02:43:39;;;;;;;9.18;5.03;;;;;;;9.79;100.00;100384.50;5037686;28;20558;-76
2021/11/13 02:46:09;;;;;;;10.50;5.82;;;;;;;9.83;100.00;100385.81;5040196;28;20468;-73
2021/11/13 02:48:38;;;;;;;14.82;7.43;;;;;;;9.81;100.00;100380.66;5037894;28;20352;-74
2021/11/13 02:51:08;;;;;;;18.63;7.18;;;;;;;9.82;100.00;100385.00;5041884;28;20464;-74
2021/11/13 02:53:39;;;;;;;14.38;7.68;;;;;;;9.78;100.00;100374.81;5042752;28;20045;-74
2021/11/13 02:56:08;;;;;;;17.13;7.97;;;;;;;9.78;100.00;100374.81;5042403;28;20057;-75
2021/11/13 02:58:37;;;;;;;10.32;6.50;;;;;;;9.82;100.00;100376.16;5042391;28;20054;-74
2021/11/13 03:01:06;;;;;;;13.25;6.88;;;;;;;9.81;100.00;100372.66;5041621;28;20044;-73
2021/11/13 03:03:34;;;;;;;12.75;6.88;;;;;;;9.82;100.00;100365.47;5036360;28;20044;-74
2021/11/13 03:06:02;;;;;;;10.70;6.57;;;;;;;9.77;100.00;100375.84;5041961;28;20433;-74
2021/11/13 03:08:31;;;;;;;15.43;7.40;;;;;;;9.80;100.00;100367.50;5042649;28;20053;-74
2021/11/13 03:11:03;;;;;;;16.83;8.48;;;;;;;9.85;100.00;100361.66;5044763;28;20048;-73
2021/11/13 03:13:32;;;;;;;15.10;7.82;;;;;;;9.79;100.00;100361.31;5039365;28;20330;-74
2021/11/13 03:16:02;;;;;;;17.73;7.50;;;;;;;9.82;100.00;100357.47;5040000;28;20225;-74
2021/11/13 03:18:30;;;;;;;15.63;7.88;;;;;;;9.68;100.00;100353.66;5045030;28;20051;-74
2021/11/13 03:20:58;;;;;;;12.13;7.45;;;;;;;9.63;100.00;100356.84;5040294;28;20049;-74
2021/11/13 03:23:26;;;;;;;13.88;6.85;;;;;;;9.65;100.00;100354.84;5040505;28;20053;-74
2021/11/13 03:25:58;;;;;;;14.10;6.95;;;;;;;9.54;100.00;100355.19;5043850;28;20079;-74
2021/11/13 03:28:29;;;;;;;13.60;6.28;;;;;;;9.58;100.00;100355.69;5045177;28;20045;-74
2021/11/13 03:31:01;;;;;;;11.05;6.20;;;;;;;9.67;100.00;100346.69;5041238;28;20046;-74
2021/11/13 03:33:29;;;;;;;11.82;5.65;;;;;;;9.68;100.00;100350.16;5039490;28;20045;-74
2021/11/13 03:35:57;;;;;;;13.02;5.65;;;;;;;9.80;100.00;100354.97;5036266;28;20354;-74
2021/11/13 03:38:25;;;;;;;14.82;6.47;;;;;;;9.79;100.00;100355.16;5039274;28;20404;-74
2021/11/13 03:40:53;;;;;;;9.43;5.30;;;;;;;9.77;100.00;100346.50;5041155;28;20488;-74
2021/11/13 03:43:21;;;;;;;9.82;6.07;;;;;;;9.80;100.00;100351.50;5038854;28;20098;-75
2021/11/13 03:45:52;;;;;;;11.88;6.25;;;;;;;9.83;100.00;100348.47;5044237;28;20053;-75
2021/11/13 03:48:20;;;;;;;13.82;5.97;;;;;;;9.83;100.00;100351.16;5041033;28;20041;-74
2021/11/13 03:50:48;;;;;;;12.35;6.65;;;;;;;9.87;100.00;100355.16;5040261;28;20099;-75
2021/11/13 03:53:16;;;;;;;15.30;6.95;;;;;;;9.90;100.00;100352.13;5039529;28;20079;-74
2021/11/13 03:55:44;;;;;;;12.02;6.32;;;;;;;9.91;100.00;100353.81;5041213;28;20491;-76
2021/11/13 03:58:12;;;;;;;14.73;6.70;;;;;;;9.98;100.00;100364.63;5039648;28;20441;-76
2021/11/13 04:00:40;;;;;;;16.52;8.18;;;;;;;9.98;100.00;100345.97;5042636;28;20075;-76
2021/11/13 04:03:10;;;;;;;14.70;7.88;;;;;;;9.98;100.00;100348.63;5034503;28;20045;-75
2021/11/13 04:05:37;;;;;;;15.98;7.72;;;;;;;9.97;100.00;100342.44;5041273;28;20079;-75
2021/11/13 04:08:06;;;;;;;15.05;7.50;;;;;;;9.99;100.00;100351.13;5040221;28;20053;-75
2021/11/13 04:10:34;;;;;;;11.07;6.60;;;;;;;10.01;100.00;100353.63;5040314;28;20118;-74
2021/11/13 04:13:02;;;;;;;13.95;6.63;;;;;;;10.06;100.00;100343.25;5041916;28;20041;-73
2021/11/13 04:15:29;;;;;;;16.98;8.07;;;;;;;10.13;100.00;100343.41;5040738;28;20061;-74
2021/11/13 04:17:58;;;;;;;15.88;7.05;;;;;;;10.13;100.00;100351.41;5038415;28;20053;-74
2021/11/13 04:20:27;;;;;;;15.80;7.88;;;;;;;10.12;100.00;100344.41;5040047;28;20045;-74
2021/11/13 04:22:55;;;;;;;18.88;7.88;;;;;;;10.12;100.00;100345.25;5039439;28;20041;-74
2021/11/13 04:25:23;;;;;;;16.33;7.60;;;;;;;10.12;100.00;100349.72;5039406;28;20042;-73
2021/11/13 04:27:52;;;;;;;15.32;8.05;;;;;;;10.17;100.00;100352.72;5039042;28;20048;-73
2021/11/13 04:30:20;;;;;;;14.63;7.90;;;;;;;10.17;100.00;100366.91;5044049;28;20046;-73
2021/11/13 04:32:50;;;;;;;15.73;7.55;;;;;;;10.13;100.00;100362.09;5038435;28;20042;-73
2021/11/13 04:35:22;;;;;;;13.85;7.10;;;;;;;10.12;100.00;100355.06;5040374;28;20054;-73
2021/11/13 04:37:54;;;;;;;13.50;7.15;;;;;;;10.08;100.00;100367.94;5042359;28;20037;-73
2021/11/13 04:40:24;;;;;;;19.83;7.60;;;;;;;10.10;100.00;100359.75;5043336;28;20053;-73
2021/11/13 04:42:52;;;;;;;12.10;7.22;;;;;;;10.17;100.00;100366.06;5036521;28;20045;-72
2021/11/13 04:45:21;;;;;;;20.35;8.10;;;;;;;10.15;100.00;100366.25;5040368;28;20044;-73
2021/11/13 04:47:49;;;;;;;13.50;6.95;;;;;;;10.14;100.00;100374.44;5039241;28;20056;-74
2021/11/13 04:50:20;;;;;;;15.82;7.38;;;;;;;10.16;100.00;100373.25;5044536;28;20045;-74
2021/11/13 04:52:49;;;;;;;12.40;7.57;;;;;;;10.12;100.00;100382.59;5035696;28;20548;-74
2021/11/13 04:55:19;;;;;;;17.98;7.43;;;;;;;10.16;100.00;100391.09;5043770;28;20098;-73
2021/11/13 04:57:48;;;;;;;14.57;6.93;;;;;;;10.11;100.00;100404.13;5041618;28;20045;-74
2021/11/13 05:00:18;;;;;;;14.05;6.75;;;;;;;10.19;100.00;100398.75;5041259;28;20038;-74
2021/11/13 05:02:46;;;;;;;16.23;7.00;;;;;;;10.14;100.00;100401.09;5039321;28;20064;-74
2021/11/13 05:05:14;;;;;;;14.68;6.68;;;;;;;10.18;100.00;100402.44;5038595;28;20099;-74
2021/11/13 05:07:42;;;;;;;19.23;7.05;;;;;;;10.14;100.00;100406.44;5041029;28;20601;-74
2021/11/13 05:10:10;;;;;;;12.68;6.35;;;;;;;10.18;100.00;100402.44;5040405;28;20041;-74
2021/11/13 05:12:40;;;;;;;12.07;5.40;;;;;;;10.24;100.00;100411.59;5039404;28;20045;-74
2021/11/13 05:15:09;;;;;;;13.50;5.55;;;;;;;10.19;100.00;100406.75;5041005;28;20112;-74
2021/11/13 05:17:38;;;;;;;10.68;5.43;;;;;;;10.23;100.00;100402.75;5037755;28;20046;-73
2021/11/13 05:20:08;;;;;;;16.17;5.40;;;;;;;10.25;100.00;100407.91;5037984;28;20316;-74
2021/11/13 05:22:37;;;;;;;14.32;5.07;;;;;;;10.18;100.00;100402.44;5037139;28;20051;-73
2021/11/13 05:25:06;;;;;;;14.80;6.22;;;;;;;10.19;100.00;100405.94;5036506;28;20049;-74
2021/11/13 05:27:34;;;;;;;12.35;5.38;;;;;;;10.18;100.00;100402.44;5040373;28;20041;-74
2021/11/13 05:30:08;;;;;;;10.15;4.45;;;;;;;10.11;100.00;100401.47;5042491;28;20041;-74
2021/11/13 05:32:36;;;;;;;13.65;5.50;;;;;;;10.12;100.00;100397.75;5037905;28;20045;-74
2021/11/13 05:35:05;;;;;;;8.25;4.97;;;;;;;10.12;100.00;100392.44;5034605;28;20067;-75
2021/11/13 05:37:34;;;;;;;12.52;3.88;;;;;;;10.11;100.00;100399.59;5036790;28;20041;-74
2021/11/13 05:40:02;;;;;;;12.88;3.95;;;;;;;10.11;100.00;100399.59;5036895;28;20064;-74
2021/11/13 05:42:30;;;;;;;9.57;4.07;;;;;;;10.16;100.00;100399.94;5035422;28;20049;-74
2021/11/13 05:44:58;;;;;;;6.22;3.28;;;;;;;10.14;100.00;100406.44;5037125;28;20096;-74
2021/11/13 05:47:27;;;;;;;8.32;3.35;;;;;;;10.08;100.00;100407.97;5034951;28;20067;-74
2021/11/13 05:49:55;;;;;;;11.05;4.47;;;;;;;10.13;100.00;100397.59;5039217;28;20052;-74
2021/11/13 05:52:24;;;;;;;9.02;3.47;;;;;;;10.04;100.00;100395.13;5041062;28;20068;-74
2021/11/13 05:54:52;;;;;;;8.57;3.42;;;;;;;10.04;100.00;100395.13;5036523;28;20098;-74
2021/11/13 05:57:20;;;;;;;10.70;3.20;;;;;;;9.97;100.00;100392.31;5040331;28;20048;-75
2021/11/13 05:59:54;;;;;;;10.95;3.88;;;;;;;9.95;100.00;100392.47;5040059;28;20052;-75
2021/11/13 06:02:22;;;;;;;10.95;4.47;;;;;;;9.99;100.00;100400.97;5035571;28;20381;-74
2021/11/13 06:04:51;;;;;;;15.93;5.13;;;;;;;10.02;100.00;100407.78;5034226;28;20048;-75
2021/11/13 06:07:19;;;;;;;12.77;5.13;;;;;;;10.03;100.00;100417.47;5038867;28;20272;-74
2021/11/13 06:09:47;;;;;;;13.52;5.15;;;;;;;10.07;100.00;100418.81;5041763;28;20052;-75
2021/11/13 06:12:15;;;;;;;15.60;4.97;;;;;;;10.04;100.00;100427.16;5037127;28;20041;-74
2021/11/13 06:14:44;;;;;;;13.93;5.90;;;;;;;10.06;100.00;100414.47;5033915;28;20040;-68
2021/11/13 06:17:14;;;;;;;10.80;4.95;;;;;;;10.11;100.00;100428.13;5037634;28;20045;-68
2021/11/13 06:19:43;;;;;;;8.65;4.20;;;;;;;10.08;100.00;100433.78;5038779;28;20053;-68
2021/11/13 06:22:12;;;;;;;8.10;3.63;;;;;;;10.15;100.00;100445.47;5037877;28;20041;-68
2021/11/13 06:24:41;;;;;;;12.90;4.30;;;;;;;10.17;100.00;100432.78;5032078;28;20033;-68
2021/11/13 06:27:10;;;;;;;8.60;3.20;;;;;;;10.12;100.00;100443.13;5037099;28;20448;-68
2021/11/13 06:29:39;;;;;;;10.75;4.53;;;;;;;10.12;100.00;100454.66;5035887;28;20373;-68
2021/11/13 06:32:08;;;;;;;8.23;3.28;;;;;;;10.14;100.00;100457.16;5030270;28;20033;-69
2021/11/13 06:34:36;;;;;;;13.27;3.47;;;;;;;10.11;100.00;100458.31;5032021;28;20037;-69
2021/11/13 06:37:04;;;;;;;9.30;3.22;;;;;;;10.07;100.00;100454.31;5035300;28;20045;-76
2021/11/13 06:39:34;;;;;;;7.32;4.22;;;;;;;9.98;100.00;100453.50;5034388;28;20104;-74
2021/11/13 06:42:02;;;;;;;11.75;4.47;;;;;;;9.96;100.00;100466.16;5035916;28;20041;-74
2021/11/13 06:44:31;;;;;;;14.10;4.00;;;;;;;10.01;100.00;100457.66;5027369;28;20400;-74
2021/11/13 06:46:59;;;;;;;9.52;3.97;;;;;;;9.95;100.00;100471.66;5030497;28;20534;-75
2021/11/13 06:49:27;;;;;;;12.98;4.72;;;;;;;9.93;100.00;100469.16;5037093;28;20067;-74
2021/11/13 06:51:54;;;;;;;10.45;3.78;;;;;;;9.91;100.00;100472.97;5037939;28;20037;-73
2021/11/13 06:54:23;;;;;;;13.63;5.05;;;;;;;9.96;100.00;100484.00;5037590;28;20424;-74
2021/11/13 06:56:52;;;;;;;10.77;4.95;;;;;;;9.88;100.00;100484.84;5036524;28;20056;-74
2021/11/13 06:59:21;;;;;;;9.85;4.80;;;;;;;9.95;100.00;100485.00;5037562;28;20045;-74
2021/11/13 07:01:49;;;;;;;19.27;6.15;;;;;;;9.85;100.00;100495.00;5033089;28;20274;-74
2021/11/13 07:04:17;;;;;;;16.00;6.18;;;;;;;9.87;100.00;100506.34;5032607;28;20037;-73
2021/11/13 07:06:44;;;;;;;14.88;5.95;;;;;;;9.82;100.00;100504.16;5034738;28;20087;-73
2021/11/13 07:09:12;;;;;;;16.35;6.28;;;;;;;9.82;100.00;100512.16;5039416;28;20054;-74
2021/11/13 07:11:40;;;;;;;18.10;7.40;;;;;;;9.83;100.00;100511.16;5037070;28;20041;-73
2021/11/13 07:14:10;;;;;;;18.13;7.53;;;;;;;9.80;100.00;100520.31;5035811;28;20056;-74
2021/11/13 07:16:38;;;;;;;18.00;7.93;;;;;;;9.81;100.00;100523.84;5031688;28;20089;-74
2021/11/13 07:19:06;;;;;;;17.38;7.90;;;;;;;9.83;100.00;100529.84;5037019;28;20205;-74
2021/11/13 07:21:35;;;;;;;18.60;7.97;;;;;;;9.80;100.00;100536.31;5032187;28;20342;-74
2021/11/13 07:24:03;;;;;;;20.88;8.65;;;;;;;9.83;100.00;100540.50;5035522;28;20041;-74
2021/11/13 07:26:31;;;;;;;25.08;9.02;;;;;;;9.87;100.00;100544.50;5037984;28;20071;-73
2021/11/13 07:29:03;;;;;;;17.42;8.13;;;;;;;9.93;100.00;100541.16;5047082;28;20041;-75
2021/11/13 07:31:33;;;;;;;24.98;8.90;;;;;;;9.92;100.00;100547.53;5038098;28;20095;-74
2021/11/13 07:34:02;;;;;;;24.60;11.02;;;;;;;9.88;100.00;100546.19;5040628;28;20045;-72
2021/11/13 07:36:30;;;;;;;23.85;10.25;;;;;;;9.85;100.00;100553.66;5041621;28;20061;-73
2021/11/13 07:38:58;;;;;;;20.85;9.50;;;;;;;9.76;100.00;100553.66;5041250;28;20215;-73
2021/11/13 07:41:27;;;;;;;20.20;9.55;;;;;;;9.81;100.00;100561.19;5041747;28;20565;-73
2021/11/13 07:43:55;;;;;;;17.08;8.50;;;;;;;9.82;100.00;100557.50;5035597;28;20068;-73
2021/11/13 07:46:23;;;;;;;20.02;9.88;;;;;;;9.88;100.00;100566.66;5035957;28;20045;-73
2021/11/13 07:48:52;;;;;;;20.90;9.48;;;;;;;9.88;100.00;100570.19;5042411;28;20098;-73
2021/11/13 07:51:21;;;;;;;21.45;8.73;;;;;;;9.97;100.00;100574.53;5042386;28;20041;-73
2021/11/13 07:53:49;;;;;;;17.55;8.57;;;;;;;10.07;100.00;100571.69;5039587;28;20053;-73
2021/11/13 07:56:17;;;;;;;18.63;9.10;;;;;;;10.10;100.00;100566.03;5039566;28;20048;-73
2021/11/13 07:58:45;;;;;;;21.67;9.15;;;;;;;10.03;100.00;100574.88;5036793;28;20461;-73
2021/11/13 08:01:14;;;;;;;21.67;8.05;;;;;;;10.15;100.00;100573.56;5039736;28;20833;-73
2021/11/13 08:03:42;;;;;;;19.35;8.18;;;;;;;10.06;100.00;100575.34;5036574;28;20049;-73
2021/11/13 08:06:11;;;;;;;17.40;8.88;;;;;;;10.04;100.00;100576.56;5041212;28;20091;-74
2021/11/13 08:08:39;;;;;;;23.92;10.73;;;;;;;9.92;100.00;100584.88;5038999;28;20044;-74
2021/11/13 08:11:07;;;;;;;19.25;9.63;;;;;;;9.88;100.00;100570.19;5037267;28;20048;-76
2021/11/13 08:13:37;;;;;;;19.85;10.48;;;;;;;9.89;100.00;100579.03;5034867;28;20037;-74
2021/11/13 08:16:06;;;;;;;18.85;9.50;;;;;;;9.93;100.00;100580.34;5038806;28;20042;-74
2021/11/13 08:18:34;;;;;;;15.60;8.43;;;;;;;9.98;100.00;100586.03;5036847;28;20041;-73
2021/11/13 08:21:02;;;;;;;22.27;9.32;;;;;;;9.92;100.00;100590.22;5042111;28;20487;-73
2021/11/13 08:23:32;;;;;;;18.98;9.50;;;;;;;10.02;100.00;100587.34;5038528;28;20041;-73
2021/11/13 08:26:00;;;;;;;15.38;7.75;;;;;;;10.00;100.00;100589.38;5040128;28;20049;-73
2021/11/13 08:28:28;;;;;;;16.40;7.05;;;;;;;10.06;100.00;100598.53;5040537;28;20087;-73
2021/11/13 08:30:57;;;;;;;16.98;8.27;;;;;;;10.11;100.00;100604.22;5039083;28;20057;-73
2021/11/13 08:33:28;;;;;;;16.77;7.13;;;;;;;10.18;100.00;100599.91;5031800;28;20057;-73
2021/11/13 08:35:56;;;;;;;15.85;7.63;;;;;;;10.17;100.00;100603.56;5039029;28;20049;-72
2021/11/13 08:38:24;;;;;;;13.02;7.03;;;;;;;10.19;100.00;100598.88;5041001;28;20099;-72
2021/11/13 08:40:56;;;;;;;12.75;6.88;;;;;;;10.30;100.00;100603.88;5039898;28;20080;-72
2021/11/13 08:43:25;;;;;;;12.13;6.38;;;;;;;10.29;100.00;100596.06;5035300;28;20045;-73
2021/11/13 08:45:54;;;;;;;11.48;6.47;;;;;;;10.37;100.00;100603.28;5036537;28;20045;-73
2021/11/13 08:48:22;;;;;;;15.85;6.85;;;;;;;10.25;100.00;100600.06;5035390;28;20041;-72
2021/11/13 08:50:50;;;;;;;19.77;6.53;;;;;;;10.37;100.00;100598.75;5039146;28;20049;-72
2021/11/13 08:53:19;;;;;;;11.48;6.53;;;;;;;10.51;100.00;100603.41;5039735;28;20037;-72
2021/11/13 08:55:47;;;;;;;12.00;6.18;;;;;;;10.56;100.00;100607.44;5038453;28;20095;-72
2021/11/13 08:58:17;;;;;;;16.05;6.15;;;;;;;10.61;100.00;100605.91;5039184;28;20271;-72
2021/11/13 09:00:47;;;;;;;14.05;6.40;;;;;;;10.57;100.00;100609.09;5038417;28;20123;-72
2021/11/13 09:03:19;;;;;;;17.17;7.07;;;;;;;10.57;100.00;100607.25;5032224;28;20210;-73
2021/11/13 09:05:48;;;;;;;13.25;6.38;;;;;;;10.66;100.00;100605.41;5037108;28;20045;-73
2021/11/13 09:08:16;;;;;;;11.85;6.13;;;;;;;10.79;100.00;100608.41;5040854;28;20041;-75
2021/11/13 09:10:45;;;;;;;11.18;4.72;;;;;;;10.78;100.00;100609.41;5037170;28;20492;-73
2021/11/13 09:13:13;;;;;;;10.48;5.93;;;;;;;10.74;100.00;100612.59;5031382;28;20049;-73
2021/11/13 09:15:43;;;;;;;12.65;6.68;;;;;;;10.57;100.00;100609.91;5041259;28;20068;-73
2021/11/13 09:18:11;;;;;;;12.30;5.55;;;;;;;10.66;100.00;100610.75;5032939;28;20047;-73
2021/11/13 09:20:45;;;;;;;12.20;6.13;;;;;;;10.53;100.00;100607.75;5038540;28;20044;-73
2021/11/13 09:23:14;;;;;;;10.60;6.50;;;;;;;10.31;100.00;100613.56;5036102;28;20033;-74
2021/11/13 09:25:43;;;;;;;14.75;6.38;;;;;;;10.38;100.00;100618.28;5032687;28;20049;-74
2021/11/13 09:28:12;;;;;;;10.82;6.32;;;;;;;10.30;100.00;100630.56;5033513;28;20060;-74
2021/11/13 09:30:43;;;;;;;13.98;6.20;;;;;;;10.25;100.00;100627.59;5034247;28;20053;-74
2021/11/13 09:33:13;;;;;;;10.13;5.72;;;;;;;10.31;100.00;100637.59;5033481;28;20049;-73
2021/11/13 09:35:42;;;;;;;12.27;6.28;;;;;;;10.19;100.00;100633.56;5039820;28;20033;-72
2021/11/13 09:38:27;;;;;;;13.63;5.78;;;;;;;10.19;100.00;100638.09;5039483;28;20044;-73
2021/11/13 09:40:55;;;;;;;9.18;5.43;;;;;;;10.15;100.00;100640.25;5034342;28;20441;-74
2021/11/13 09:43:24;;;;;;;13.77;6.68;;;;;;;10.19;100.00;100648.75;5038866;28;20056;-73
2021/11/13 09:45:55;;;;;;;12.20;6.60;;;;;;;10.32;100.00;100643.78;5035299;28;20033;-73
2021/11/13 09:48:24;;;;;;;13.07;6.47;;;;;;;10.31;100.00;100652.78;5043430;28;20084;-73
2021/11/13 09:50:52;;;;;;;12.32;6.50;;;;;;;10.30;100.00;100654.59;5040557;28;20056;-74
2021/11/13 09:53:22;;;;;;;13.80;6.88;;;;;;;10.24;100.00;100654.44;5041744;28;20052;-73
2021/11/13 09:55:51;;;;;;;12.48;5.93;;;;;;;10.26;100.00;100663.13;5037924;28;20433;-72
2021/11/13 09:58:19;;;;;;;13.82;7.78;;;;;;;10.22;100.00;100670.63;5038656;28;20428;-73
2021/11/13 10:00:47;;;;;;;10.98;6.60;;;;;;;10.20;100.00;100667.28;5037347;28;20038;-75
2021/11/13 10:03:19;;;;;;;12.45;6.07;;;;;;;10.20;100.00;100672.59;5038567;28;20051;-74
2021/11/13 10:05:48;;;;;;;11.73;6.30;;;;;;;10.21;100.00;100681.47;5036424;28;20049;-74
2021/11/13 10:08:16;;;;;;;9.10;4.75;;;;;;;10.25;100.00;100675.63;5038623;28;20045;-73
2021/11/13 10:10:45;;;;;;;12.70;6.10;;;;;;;10.60;100.00;100672.84;5035126;28;20496;-73
2021/11/13 10:13:28;;;;;;;13.05;6.05;;;;;;;10.58;100.00;100665.00;5033962;28;20049;-73
2021/11/13 10:15:57;;;;;;;11.32;5.70;;;;;;;10.68;100.00;100671.00;5038599;28;20034;-73
2021/11/13 10:18:29;;;;;;;11.27;5.03;;;;;;;10.77;100.00;100668.34;5033819;28;20045;-72
2021/11/13 10:21:05;;;;;;;9.23;5.70;;;;;;;10.78;100.00;100667.34;5036173;28;20340;-72
2021/11/13 10:23:40;;;;;;;9.20;5.63;;;;;;;10.85;100.00;100661.16;5038009;28;20044;-73
2021/11/13 10:26:11;;;;;;;9.77;6.15;;;;;;;10.90;100.00;100667.81;5031217;28;20056;-73
2021/11/13 10:28:46;;;;;;;11.63;6.15;;;;;;;10.98;100.00;100652.59;5036507;28;20069;-72
2021/11/13 10:31:16;;;;;;;11.63;6.75;;;;;;;11.33;100.00;100660.41;5038397;28;20044;-73
2021/11/13 10:33:46;;;;;;;10.25;5.68;;;;;;;11.53;100.00;100650.94;5034974;28;20046;-73
2021/11/13 10:36:15;;;;;;;10.85;6.05;;;;;;;11.18;100.00;100644.22;5035883;28;20449;-73
2021/11/13 10:38:44;;;;;;;11.80;6.40;;;;;;;11.27;100.00;100647.69;5039059;28;20068;-73
2021/11/13 10:41:13;;;;;;;10.15;5.20;;;;;;;11.32;100.00;100651.53;5041243;28;20379;-73
2021/11/13 10:43:42;;;;;;;10.27;5.85;;;;;;;11.26;100.00;100644.19;5036360;28;20376;-73
2021/11/13 10:46:12;;;;;;;10.45;5.60;;;;;;;11.20;100.00;100644.91;5036520;28;20042;-73
2021/11/13 10:48:42;;;;;;;11.07;5.95;;;;;;;11.15;100.00;100639.22;5035269;28;20040;-74
2021/11/13 10:51:14;;;;;;;11.43;5.50;;;;;;;11.27;100.00;100645.88;5034813;28;20517;-74
2021/11/13 10:53:44;;;;;;;11.23;5.18;;;;;;;11.32;100.00;100650.69;5028733;28;20052;-74
2021/11/13 10:56:14;;;;;;;10.57;6.00;;;;;;;11.10;100.00;100655.78;5040420;28;20041;-74
2021/11/13 10:58:45;;;;;;;12.27;7.60;;;;;;;11.08;100.00;100655.09;5034454;28;20052;-75
2021/11/13 11:01:28;;;;;;;11.50;5.85;;;;;;;11.39;100.00;100653.53;5035176;28;20315;-76
2021/11/13 11:03:59;;;;;;;12.50;5.68;;;;;;;11.25;100.00;100645.19;5036907;28;20103;-74
2021/11/13 11:06:31;;;;;;;11.65;5.55;;;;;;;11.50;100.00;100647.81;5036989;28;20044;-74
2021/11/13 11:09:00;;;;;;;12.50;5.78;;;;;;;11.25;100.00;100650.53;5038650;28;20441;-76
2021/11/13 11:11:33;;;;;;;11.20;5.60;;;;;;;11.05;100.00;100649.28;5039722;28;20067;-76
2021/11/13 11:14:03;;;;;;;8.30;4.68;;;;;;;11.16;100.00;100646.25;5039149;28;20033;-75
2021/11/13 11:16:32;;;;;;;11.90;5.68;;;;;;;11.26;100.00;100652.22;5041054;28;20541;-73
2021/11/13 11:19:04;;;;;;;8.82;4.68;;;;;;;11.48;100.00;100653.31;5041272;28;20047;-74
2021/11/13 11:21:47;;;;;;;12.15;5.00;;;;;;;11.54;100.00;100649.13;5040181;28;20183;-75